Terminal Aerodrome Forecast
Issued by NWS

Home | Current Version | Previous Version | Text Only | Print | Product List | Glossary On
Versions: 1 2 3 4 5 6 7 8 9 10 11 12 13 14 15 16 17 18 19 20 21 22 23 24
136
FTUS43 KILX 251120
TAFDEC
TAF
KDEC 251120Z 2512/2612 29017G27KT P6SM VCSH OVC025
     FM251500 30016G25KT P6SM SCT040
     FM260000 29009KT P6SM SCT250
     FM260800 21004KT P6SM FEW130=

USA.gov is the U.S. government's official web portal to all federal, state and local government web resources and services.